Time;durP1;ratioP1;P1;durP2;ratioP2;P2;SDS_P1;SDS_P2;PMS_P1;PMS_P2;Temp;Humidity;BMP_temperature;BMP_pressure;BME280_temperature;BME280_humidity;BME280_pressure;Samples;Min_cycle;Max_cycle;Signal;HPM_P1;HPM_P2
2023/05/05 00:02:07;;;;;;;20.80;10.80;;;;;;;6.27;100.00;97801.06;110166;1241;68115;-75
2023/05/05 00:04:39;;;;;;;24.60;10.50;;;;;;;6.27;100.00;97802.42;110131;1245;68694;-75
2023/05/05 00:07:14;;;;;;;41.60;11.20;;;;;;;6.29;100.00;97809.27;110142;1241;59750;-75
2023/05/05 00:09:45;;;;;;;22.80;8.90;;;;;;;6.30;100.00;97808.30;110168;1245;59692;-76
2023/05/05 00:12:19;;;;;;;14.70;6.60;;;;;;;6.31;100.00;97808.98;110157;1243;70355;-76
2023/05/05 00:14:50;;;;;;;22.10;8.20;;;;;;;6.31;100.00;97807.74;110085;1241;69254;-76
2023/05/05 00:17:21;;;;;;;16.40;7.60;;;;;;;6.31;100.00;97806.55;110109;1244;69341;-76
2023/05/05 00:19:53;;;;;;;13.20;6.70;;;;;;;6.30;100.00;97807.33;110098;1245;59745;-75
2023/05/05 00:22:27;;;;;;;15.50;8.30;;;;;;;6.27;100.00;97803.44;110131;1241;59742;-75
2023/05/05 00:24:57;;;;;;;27.30;8.60;;;;;;;6.28;100.00;97802.73;110148;1241;71304;-75
2023/05/05 00:27:29;;;;;;;19.80;7.70;;;;;;;6.28;100.00;97804.30;110128;1243;68957;-75
2023/05/05 00:30:02;;;;;;;15.50;8.20;;;;;;;6.28;100.00;97804.77;110092;1243;69267;-75
2023/05/05 00:32:33;;;;;;;16.50;8.10;;;;;;;6.28;100.00;97803.59;110101;1244;59746;-75
2023/05/05 00:35:05;;;;;;;29.40;10.10;;;;;;;6.28;100.00;97807.75;110119;1241;59679;-75
2023/05/05 00:37:34;;;;;;;19.90;9.50;;;;;;;6.25;100.00;97805.79;110106;1243;71388;-75
2023/05/05 00:40:06;;;;;;;17.50;9.60;;;;;;;6.23;100.00;97805.23;110161;1241;69201;-74
2023/05/05 00:42:41;;;;;;;19.80;9.00;;;;;;;6.18;100.00;97804.27;110122;1243;69128;-75
2023/05/05 00:45:14;;;;;;;13.70;7.60;;;;;;;6.14;100.00;97802.02;110155;1244;59744;-75
2023/05/05 00:47:53;;;;;;;13.20;7.40;;;;;;;6.10;100.00;97804.94;110118;1241;59726;-75
2023/05/05 00:50:27;;;;;;;10.10;6.60;;;;;;;6.07;100.00;97805.66;110123;1243;70691;-75
2023/05/05 00:53:01;;;;;;;10.10;6.00;;;;;;;6.03;100.00;97803.04;110125;1241;68410;-75
2023/05/05 00:55:35;;;;;;;10.20;6.30;;;;;;;6.00;100.00;97800.46;110093;1244;69423;-75
2023/05/05 00:58:07;;;;;;;11.30;6.40;;;;;;;5.97;100.00;97799.38;110122;1245;59760;-75
2023/05/05 01:00:39;;;;;;;15.10;7.60;;;;;;;5.96;100.00;97798.05;110184;1241;59689;-75
2023/05/05 01:03:14;;;;;;;11.30;6.50;;;;;;;5.95;100.00;97796.04;110149;1245;71848;-75
2023/05/05 01:06:18;;;;;;;23.70;8.80;;;;;;;5.94;100.00;97798.66;110175;1243;69228;-75
2023/05/05 01:09:03;;;;;;;17.50;7.20;;;;;;;5.93;100.00;97795.61;109986;1245;69400;-75
2023/05/05 01:11:39;;;;;;;17.90;8.10;;;;;;;5.92;100.00;97795.31;110115;1245;59699;-75
2023/05/05 01:14:15;;;;;;;12.20;8.10;;;;;;;5.91;100.00;97794.29;110173;1245;59679;-75
2023/05/05 01:17:03;;;;;;;11.40;6.80;;;;;;;5.89;100.00;97792.80;110138;1241;71361;-75
2023/05/05 01:20:06;;;;;;;12.80;8.10;;;;;;;5.83;100.00;97792.40;110079;1245;68473;-75
2023/05/05 01:22:45;;;;;;;11.20;6.80;;;;;;;5.69;100.00;97791.34;110150;1245;68660;-75
2023/05/05 01:25:48;;;;;;;8.80;6.70;;;;;;;5.59;100.00;97793.35;110132;1247;59751;-75
2023/05/05 01:28:27;;;;;;;7.50;6.30;;;;;;;5.50;100.00;97789.66;110145;1244;59729;-75
2023/05/05 01:31:34;;;;;;;11.40;6.00;;;;;;;5.46;100.00;97790.69;110111;1243;71741;-75
2023/05/05 01:34:12;;;;;;;15.00;7.50;;;;;;;5.42;100.00;97792.92;110124;1244;69493;-75
2023/05/05 01:36:52;;;;;;;10.70;6.70;;;;;;;5.40;100.00;97794.42;110116;1251;68706;-76
2023/05/05 01:39:31;;;;;;;9.00;6.60;;;;;;;5.40;100.00;97795.11;110129;1244;59684;-76
2023/05/05 01:42:13;;;;;;;10.50;6.30;;;;;;;5.39;100.00;97791.37;110161;1243;59684;-75
2023/05/05 01:44:45;;;;;;;19.90;6.70;;;;;;;5.38;100.00;97785.54;110147;1245;71819;-76
2023/05/05 01:47:20;;;;;;;14.40;6.70;;;;;;;5.36;100.00;97786.83;110117;1244;68318;-75
2023/05/05 01:49:51;;;;;;;11.30;6.70;;;;;;;5.35;100.00;97783.56;110159;1245;68512;-76
2023/05/05 01:52:27;;;;;;;13.20;6.70;;;;;;;5.34;100.00;97781.89;110173;1245;59758;-75
2023/05/05 01:55:01;;;;;;;17.80;7.50;;;;;;;5.34;100.00;97781.89;110152;1245;59743;-75
2023/05/05 01:57:36;;;;;;;11.50;6.80;;;;;;;5.35;100.00;97782.88;110168;1245;71244;-75
2023/05/05 02:00:10;;;;;;;13.20;7.00;;;;;;;5.37;100.00;97779.20;110134;1246;69234;-75
2023/05/05 02:02:46;;;;;;;13.30;7.40;;;;;;;5.38;100.00;97780.02;110140;1243;69923;-75
2023/05/05 02:05:21;;;;;;;14.40;6.70;;;;;;;5.37;100.00;97781.60;109447;1241;972883;-75
2023/05/05 02:07:58;;;;;;;10.20;6.50;;;;;;;5.37;100.00;97780.73;110139;1245;59708;-76
2023/05/05 02:10:39;;;;;;;13.70;6.80;;;;;;;5.35;100.00;97781.67;110149;1244;71517;-75
2023/05/05 02:13:14;;;;;;;15.00;6.60;;;;;;;5.32;100.00;97777.65;110149;1241;68955;-75
2023/05/05 02:15:46;;;;;;;9.90;6.20;;;;;;;5.29;100.00;97771.93;110191;1245;69245;-75
2023/05/05 02:18:24;;;;;;;10.30;6.80;;;;;;;5.27;100.00;97769.27;110153;1245;59697;-75
2023/05/05 02:20:54;;;;;;;24.70;8.60;;;;;;;5.25;100.00;97767.45;110193;1241;59676;-75
2023/05/05 02:23:25;;;;;;;9.90;5.20;;;;;;;5.23;100.00;97762.20;110127;1241;70467;-75
2023/05/05 02:26:06;;;;;;;9.90;4.80;;;;;;;5.19;100.00;97757.88;110371;1241;68569;-75
2023/05/05 02:28:48;;;;;;;12.00;5.70;;;;;;;5.14;100.00;97756.75;110368;1244;69289;-75
2023/05/05 02:31:25;;;;;;;9.80;6.50;;;;;;;5.10;100.00;97759.31;110431;1241;59744;-75
2023/05/05 02:34:00;;;;;;;11.80;6.70;;;;;;;5.09;100.00;97759.52;110235;1244;59699;-76
2023/05/05 02:36:41;;;;;;;12.80;7.10;;;;;;;5.11;100.00;97765.34;110222;1243;71378;-76
2023/05/05 02:39:23;;;;;;;10.90;7.00;;;;;;;5.10;100.00;97765.02;110189;1245;69070;-75
2023/05/05 02:41:56;;;;;;;11.60;7.10;;;;;;;5.09;100.00;97765.77;110114;1244;68559;-76
2023/05/05 02:44:30;;;;;;;9.80;6.20;;;;;;;5.06;100.00;97764.86;110183;1245;59751;-75
2023/05/05 02:47:03;;;;;;;7.70;5.40;;;;;;;5.00;100.00;97764.42;110205;1246;59605;-76
2023/05/05 02:49:34;;;;;;;9.30;6.70;;;;;;;4.94;100.00;97764.73;110193;1243;71351;-76
2023/05/05 02:52:05;;;;;;;8.10;6.20;;;;;;;4.90;100.00;97769.06;110208;1244;68504;-75
2023/05/05 02:54:38;;;;;;;16.90;6.20;;;;;;;4.83;100.00;97768.97;110125;1244;68612;-75
2023/05/05 02:57:19;;;;;;;10.70;6.20;;;;;;;4.76;100.00;97772.77;110171;1244;59666;-76
2023/05/05 03:00:14;;;;;;;14.00;6.50;;;;;;;4.74;100.00;97770.95;110127;1245;59681;-76
2023/05/05 03:03:08;;;;;;;14.20;5.30;;;;;;;4.70;100.00;97773.70;110176;1245;71866;-77
2023/05/05 03:06:04;;;;;;;9.80;6.20;;;;;;;4.70;100.00;97780.11;110141;1241;68609;-76
2023/05/05 03:09:02;;;;;;;12.20;6.40;;;;;;;4.70;100.00;97781.48;110110;1241;68574;-76
2023/05/05 03:11:45;;;;;;;9.00;5.60;;;;;;;4.73;100.00;97783.27;110134;1252;59681;-77
2023/05/05 03:14:20;;;;;;;11.00;5.50;;;;;;;4.76;100.00;97782.77;110123;1243;59686;-75
2023/05/05 03:16:54;;;;;;;32.60;7.10;;;;;;;4.79;100.00;97785.05;110130;1245;70621;-75
2023/05/05 03:19:25;;;;;;;8.60;5.10;;;;;;;4.80;100.00;97788.11;110150;1245;69889;-75
2023/05/05 03:21:57;;;;;;;17.20;6.60;;;;;;;4.84;100.00;97787.41;110084;1245;69895;-75
2023/05/05 03:24:27;;;;;;;13.80;6.90;;;;;;;4.88;100.00;97793.49;110112;1243;59753;-75
2023/05/05 03:27:03;;;;;;;10.60;5.80;;;;;;;4.89;100.00;97793.41;110132;1243;59747;-75
2023/05/05 03:29:36;;;;;;;9.50;6.00;;;;;;;4.91;100.00;97795.05;110107;1246;72027;-75
2023/05/05 03:32:11;;;;;;;12.60;7.70;;;;;;;4.93;100.00;97801.02;110091;1245;70038;-75
2023/05/05 03:34:41;;;;;;;8.10;5.40;;;;;;;4.95;100.00;97800.08;110123;1246;68555;-75
2023/05/05 03:37:11;;;;;;;8.30;6.10;;;;;;;4.97;100.00;97803.08;110112;1245;59675;-75
2023/05/05 03:39:42;;;;;;;10.40;6.20;;;;;;;5.00;100.00;97801.39;110117;1241;59747;-75
2023/05/05 03:42:12;;;;;;;8.80;5.90;;;;;;;5.03;100.00;97800.08;110144;1242;71421;-75
2023/05/05 03:44:41;;;;;;;8.10;5.70;;;;;;;5.08;100.00;97800.02;110086;1245;68496;-75
2023/05/05 03:47:10;;;;;;;10.70;6.50;;;;;;;5.09;100.00;97802.39;110106;1252;69820;-75
2023/05/05 03:49:40;;;;;;;9.60;4.90;;;;;;;5.04;100.00;97804.85;110149;1241;59740;-74
2023/05/05 03:52:10;;;;;;;23.50;5.80;;;;;;;5.04;100.00;97811.42;110139;1241;59685;-75
2023/05/05 03:54:44;;;;;;;12.00;7.80;;;;;;;5.03;100.00;97820.45;110117;1251;71247;-75
2023/05/05 03:57:14;;;;;;;28.70;9.10;;;;;;;5.01;100.00;97824.52;110125;1245;69447;-74
2023/05/05 03:59:43;;;;;;;27.00;8.50;;;;;;;5.05;100.00;97820.04;110099;1245;69128;-75
2023/05/05 04:02:13;;;;;;;52.10;10.10;;;;;;;5.09;100.00;97821.21;110124;1241;59721;-75
2023/05/05 04:04:46;;;;;;;9.80;6.90;;;;;;;5.14;100.00;97818.95;110067;1241;59723;-75
2023/05/05 04:07:16;;;;;;;9.50;6.50;;;;;;;5.21;100.00;97820.70;110117;1241;71409;-75
2023/05/05 04:09:46;;;;;;;18.20;7.70;;;;;;;5.31;100.00;97819.18;110108;1245;69082;-75
2023/05/05 04:12:17;;;;;;;12.50;6.70;;;;;;;5.40;100.00;97821.89;110151;1245;69855;-75
2023/05/05 04:14:47;;;;;;;15.10;7.20;;;;;;;5.47;100.00;97824.01;110083;1245;59744;-76
2023/05/05 04:17:17;;;;;;;23.20;9.00;;;;;;;5.55;100.00;97826.23;110096;1245;59665;-76
2023/05/05 04:19:46;;;;;;;15.80;8.20;;;;;;;5.61;100.00;97829.23;110125;1241;71359;-76
2023/05/05 04:22:15;;;;;;;12.60;7.40;;;;;;;5.67;100.00;97830.34;110149;1244;69625;-75
2023/05/05 04:24:46;;;;;;;18.40;8.80;;;;;;;5.77;100.00;97829.35;110128;1244;69951;-75
2023/05/05 04:27:15;;;;;;;10.20;6.80;;;;;;;5.85;100.00;97835.20;110143;1241;59735;-75
2023/05/05 04:29:45;;;;;;;17.80;7.90;;;;;;;5.96;100.00;97835.09;110086;1252;59669;-75
2023/05/05 04:32:14;;;;;;;26.60;9.10;;;;;;;6.03;100.00;97837.98;110139;1245;71386;-76
2023/05/05 04:34:44;;;;;;;49.20;9.20;;;;;;;6.02;100.00;97837.70;110107;1245;69317;-76
2023/05/05 04:37:14;;;;;;;;;;;;;;;6.09;100.00;97836.19;110092;1242;69248;-76
2023/05/05 04:39:43;;;;;;;12.10;6.50;;;;;;;6.15;100.00;97840.73;110091;1245;59675;-76
2023/05/05 04:42:13;;;;;;;11.90;5.70;;;;;;;6.29;100.00;97842.51;110139;1241;59678;-76
2023/05/05 04:44:43;;;;;;;34.40;8.80;;;;;;;6.42;100.00;97843.72;110103;1241;70545;-76
2023/05/05 04:47:12;;;;;;;15.30;7.10;;;;;;;6.53;100.00;97846.70;110159;1244;69741;-76
2023/05/05 04:49:43;;;;;;;12.30;7.30;;;;;;;6.65;100.00;97845.23;110159;1244;69292;-76
2023/05/05 04:52:13;;;;;;;13.50;8.10;;;;;;;6.75;100.00;97845.92;110133;1241;59699;-76
2023/05/05 04:54:43;;;;;;;10.90;8.20;;;;;;;6.81;100.00;97845.43;110073;1245;59640;-76
2023/05/05 04:57:12;;;;;;;8.80;6.60;;;;;;;6.91;100.00;97845.98;110113;1244;71458;-76
2023/05/05 04:59:42;;;;;;;;;;;;;;;7.00;100.00;97849.30;110156;1242;68536;-76
2023/05/05 05:02:11;;;;;;;11.90;6.70;;;;;;;7.05;100.00;97844.54;110105;1245;69146;-76
2023/05/05 05:04:41;;;;;;;20.40;6.60;;;;;;;7.15;100.00;97849.08;110168;1241;59819;-76
2023/05/05 05:07:13;;;;;;;10.40;6.70;;;;;;;7.25;100.00;97854.25;110130;1243;59744;-76
2023/05/05 05:09:42;;;;;;;8.60;6.50;;;;;;;7.28;100.00;97850.65;110155;1241;71215;-76
2023/05/05 05:12:13;;;;;;;15.50;6.50;;;;;;;7.42;100.00;97849.92;110126;1244;68243;-76
2023/05/05 05:14:42;;;;;;;17.80;9.50;;;;;;;7.57;100.00;97850.46;110144;1242;69259;-76
2023/05/05 05:17:11;;;;;;;11.80;8.40;;;;;;;7.67;100.00;97850.85;110105;1245;60052;-76
2023/05/05 05:19:40;;;;;;;22.00;8.90;;;;;;;7.66;100.00;97853.29;110183;1243;60105;-76
2023/05/05 05:22:11;;;;;;;14.70;7.70;;;;;;;7.75;100.00;97853.89;110166;1241;71351;-76
2023/05/05 05:24:41;;;;;;;11.10;7.70;;;;;;;7.85;100.00;97862.16;110120;1245;68642;-77
2023/05/05 05:27:10;;;;;;;14.60;6.90;;;;;;;7.86;100.00;97864.52;110096;1244;68509;-76
2023/05/05 05:29:42;;;;;;;17.10;6.40;;;;;;;7.98;100.00;97869.45;110115;1243;59751;-77
2023/05/05 05:32:11;;;;;;;13.70;5.80;;;;;;;8.09;100.00;97875.08;110165;1244;59694;-76
2023/05/05 05:34:40;;;;;;;8.00;6.00;;;;;;;8.10;100.00;97876.08;110115;1244;71368;-75
2023/05/05 05:37:10;;;;;;;13.70;6.10;;;;;;;8.23;100.00;97874.99;110139;1243;69278;-75
2023/05/05 05:39:41;;;;;;;15.10;6.70;;;;;;;8.36;100.00;97876.35;110105;1245;69254;-76
2023/05/05 05:42:12;;;;;;;7.00;5.60;;;;;;;8.43;100.00;97877.57;110118;1244;59744;-76
2023/05/05 05:44:41;;;;;;;8.00;5.60;;;;;;;8.62;100.00;97877.66;110106;1244;59673;-76
2023/05/05 05:47:11;;;;;;;7.50;6.50;;;;;;;8.85;100.00;97875.80;110154;1245;71280;-76
2023/05/05 05:49:40;;;;;;;17.90;6.70;;;;;;;9.05;100.00;97869.56;110113;1243;69336;-76
2023/05/05 05:52:08;;;;;;;7.50;5.60;;;;;;;9.29;100.00;97875.45;110106;1242;69243;-76
2023/05/05 05:54:38;;;;;;;10.60;6.00;;;;;;;9.36;100.00;97872.77;110144;1244;59770;-76
2023/05/05 05:57:08;;;;;;;9.70;6.00;;;;;;;9.56;100.00;97871.77;110091;1245;59703;-76
2023/05/05 05:59:37;;;;;;;6.60;5.10;;;;;;;9.66;100.00;97871.27;110090;1243;71337;-76
2023/05/05 06:02:06;;;;;;;23.40;7.50;;;;;;;9.66;100.00;97872.81;110116;1244;69213;-76
2023/05/05 06:04:35;;;;;;;11.40;6.90;;;;;;;9.55;100.00;97879.14;110137;1244;69748;-77
2023/05/05 06:07:05;;;;;;;16.40;6.90;;;;;;;9.59;100.00;97879.54;110134;1241;59687;-76
2023/05/05 06:09:34;;;;;;;9.20;7.00;;;;;;;9.71;100.00;97879.70;110135;1241;59673;-76
2023/05/05 06:12:03;;;;;;;8.70;6.30;;;;;;;9.89;100.00;97883.45;110078;1241;72029;-76
2023/05/05 06:14:32;;;;;;;7.10;6.20;;;;;;;10.08;100.00;97883.27;110104;1243;68842;-76
2023/05/05 06:17:02;;;;;;;15.20;6.70;;;;;;;10.24;100.00;97875.67;110109;1245;69836;-76
2023/05/05 06:19:31;;;;;;;6.60;5.90;;;;;;;10.15;100.00;97875.38;110163;1244;59710;-76
2023/05/05 06:22:01;;;;;;;6.10;5.40;;;;;;;10.20;100.00;97876.77;110173;1244;59676;-76
2023/05/05 06:24:30;;;;;;;6.00;5.40;;;;;;;10.21;100.00;97876.88;110128;1251;70420;-76
2023/05/05 06:27:01;;;;;;;;;;;;;;;10.66;100.00;97878.39;110140;1245;68553;-76
2023/05/05 06:29:30;;;;;;;6.20;5.60;;;;;;;11.14;99.29;97873.79;110166;1245;69711;-76
2023/05/05 06:32:00;;;;;;;5.90;5.20;;;;;;;11.26;97.12;97872.78;110164;1245;59742;-76
2023/05/05 06:34:28;;;;;;;6.10;4.80;;;;;;;11.29;96.59;97876.23;110144;1242;59724;-76
2023/05/05 06:36:58;;;;;;;5.30;4.70;;;;;;;11.27;95.65;97877.56;110145;1243;71967;-76
2023/05/05 06:39:28;;;;;;;5.00;4.50;;;;;;;11.41;94.19;97876.98;110180;1245;69212;-76
2023/05/05 06:41:56;;;;;;;5.40;4.50;;;;;;;12.01;94.23;97877.70;110116;1244;69375;-75
2023/05/05 06:44:29;;;;;;;5.30;4.50;;;;;;;12.57;94.00;97880.80;110128;1245;59734;-75
2023/05/05 06:46:59;;;;;;;4.40;3.20;;;;;;;13.22;88.89;97881.78;110170;1245;59693;-75
2023/05/05 06:49:28;;;;;;;4.10;3.70;;;;;;;13.79;85.78;97880.86;110153;1244;71438;-75
2023/05/05 06:51:57;;;;;;;4.20;3.80;;;;;;;14.40;86.31;97879.65;110078;1245;69540;-76
2023/05/05 06:54:26;;;;;;;3.40;3.00;;;;;;;14.88;81.67;97882.96;110134;1245;69205;-75
2023/05/05 06:56:55;;;;;;;5.30;4.30;;;;;;;15.26;78.97;97880.27;110152;1245;59702;-75
2023/05/05 06:59:27;;;;;;;4.80;3.90;;;;;;;15.05;74.92;97881.15;110143;1241;59731;-75
2023/05/05 07:01:56;;;;;;;3.00;2.70;;;;;;;15.16;76.27;97878.52;110152;1245;71393;-75
2023/05/05 07:04:25;;;;;;;4.90;4.30;;;;;;;15.47;74.29;97876.58;110148;1244;69226;-75
2023/05/05 07:06:57;;;;;;;3.30;2.60;;;;;;;15.78;71.31;97878.77;110128;1242;70297;-75
2023/05/05 07:09:26;;;;;;;4.00;3.10;;;;;;;16.27;69.90;97879.69;110114;1241;59739;-75
2023/05/05 07:11:55;;;;;;;3.60;3.30;;;;;;;16.52;68.96;97880.05;110146;1243;59644;-75
2023/05/05 07:14:26;;;;;;;3.60;3.20;;;;;;;16.61;66.92;97874.14;110092;1241;71971;-75
2023/05/05 07:16:55;;;;;;;3.70;3.30;;;;;;;16.60;65.00;97875.54;110150;1245;69855;-75
2023/05/05 07:19:25;;;;;;;4.10;2.80;;;;;;;16.96;66.24;97876.48;110124;1245;68524;-75
2023/05/05 07:21:54;;;;;;;4.20;2.60;;;;;;;17.31;62.85;97870.59;110093;1244;59706;-75
2023/05/05 07:24:23;;;;;;;2.90;2.30;;;;;;;17.70;62.35;97868.00;110129;1243;59893;-74
2023/05/05 07:26:52;;;;;;;2.90;2.50;;;;;;;17.88;60.78;97870.88;110122;1241;71368;-75
2023/05/05 07:29:21;;;;;;;4.20;2.80;;;;;;;18.32;61.57;97873.04;110129;1246;68485;-75
2023/05/05 07:31:50;;;;;;;4.20;2.60;;;;;;;18.59;59.44;97870.19;110115;1245;69713;-74
2023/05/05 07:34:19;;;;;;;3.90;2.20;;;;;;;18.82;58.70;97867.90;110148;1243;59671;-74
2023/05/05 07:36:49;;;;;;;3.10;2.00;;;;;;;18.88;56.44;97868.39;110136;1246;60095;-75
2023/05/05 07:39:19;;;;;;;3.10;2.00;;;;;;;18.92;53.85;97867.45;110178;1243;71357;-75
2023/05/05 07:41:49;;;;;;;3.70;2.40;;;;;;;18.98;54.05;97864.46;110146;1245;68699;-74
2023/05/05 07:44:17;;;;;;;2.30;1.70;;;;;;;18.36;51.86;97865.93;110155;1246;69240;-73
2023/05/05 07:46:46;;;;;;;2.20;1.80;;;;;;;18.78;52.49;97862.83;110125;1244;59744;-74
2023/05/05 07:49:16;;;;;;;2.70;2.00;;;;;;;19.22;51.45;97862.35;110162;1244;59676;-74
2023/05/05 07:51:45;;;;;;;4.30;3.10;;;;;;;19.35;50.33;97866.38;110138;1243;71329;-75
2023/05/05 07:54:14;;;;;;;5.20;3.30;;;;;;;18.94;51.26;97862.66;110134;1244;69837;-74
2023/05/05 07:56:43;;;;;;;4.20;3.70;;;;;;;18.87;53.42;97865.36;110148;1243;69957;-76
2023/05/05 07:59:12;;;;;;;;;;;;;;;18.82;51.92;97862.98;110150;1245;59682;-76
2023/05/05 08:01:42;;;;;;;3.60;2.80;;;;;;;18.84;51.78;97867.27;110152;1243;59643;-75
2023/05/05 08:04:12;;;;;;;2.40;1.90;;;;;;;18.90;50.94;97868.03;110172;1244;72146;-73
2023/05/05 08:06:41;;;;;;;2.50;2.30;;;;;;;18.72;50.12;97866.09;110283;1241;69806;-72
2023/05/05 08:09:10;;;;;;;2.60;2.10;;;;;;;18.73;50.69;97869.59;110113;1244;68842;-74
2023/05/05 08:11:39;;;;;;;3.80;3.30;;;;;;;18.97;50.88;97867.82;110164;1245;59751;-72
2023/05/05 08:14:08;;;;;;;3.90;3.40;;;;;;;19.58;50.73;97865.65;110146;1243;60170;-72
2023/05/05 08:16:37;;;;;;;3.80;3.40;;;;;;;19.51;50.86;97867.84;110153;1241;71958;-71
2023/05/05 08:19:07;;;;;;;5.20;4.70;;;;;;;19.71;51.19;97865.15;110163;1243;69906;-71
2023/05/05 08:21:53;;;;;;;4.90;4.40;;;;;;;20.05;50.89;97865.69;110185;1243;69091;-71
2023/05/05 08:24:22;;;;;;;5.30;4.50;;;;;;;20.13;50.41;97864.17;110156;1244;59699;-71
2023/05/05 08:26:51;;;;;;;5.50;3.70;;;;;;;19.81;50.28;97866.61;110026;1244;59731;-71
2023/05/05 08:29:20;;;;;;;4.50;3.30;;;;;;;19.69;49.87;97862.55;110128;1246;71045;-71
2023/05/05 08:31:49;;;;;;;3.90;3.00;;;;;;;19.29;51.54;97862.34;110151;1243;68304;-71
2023/05/05 08:34:19;;;;;;;3.40;2.90;;;;;;;19.63;51.63;97863.85;110194;1245;69269;-72
2023/05/05 08:36:49;;;;;;;;;;;;;;;20.30;49.92;97864.52;110211;1243;59742;-73
2023/05/05 08:39:18;;;;;;;4.50;2.70;;;;;;;20.42;48.41;97860.95;110165;1241;59646;-72
2023/05/05 08:41:48;;;;;;;3.90;2.60;;;;;;;20.03;48.86;97863.30;110307;1245;71802;-74
2023/05/05 08:44:17;;;;;;;2.90;2.50;;;;;;;19.72;48.65;97860.61;110085;1245;69123;-73
2023/05/05 08:46:47;;;;;;;3.40;2.90;;;;;;;20.05;48.97;97861.10;110270;1241;68826;-73
2023/05/05 08:49:17;;;;;;;2.90;2.00;;;;;;;19.72;48.67;97863.06;110277;1241;59699;-73
2023/05/05 08:51:47;;;;;;;2.70;2.30;;;;;;;20.09;47.49;97862.54;110202;1243;59738;-73
2023/05/05 08:54:26;;;;;;;3.10;2.30;;;;;;;21.18;47.22;97863.57;110299;1245;70844;-72
2023/05/05 08:57:00;;;;;;;3.70;2.40;;;;;;;21.46;44.84;97862.13;110293;1245;69232;-72
2023/05/05 08:59:31;;;;;;;2.90;2.30;;;;;;;20.35;45.20;97866.64;110163;1241;69887;-73
2023/05/05 09:02:03;;;;;;;2.70;2.10;;;;;;;21.13;45.84;97865.13;110108;1241;59694;-73
2023/05/05 09:04:33;;;;;;;4.90;2.70;;;;;;;20.94;45.16;97865.42;110158;1244;59657;-73
2023/05/05 09:07:02;;;;;;;3.70;1.80;;;;;;;21.29;44.85;97858.48;110154;1241;71353;-72
2023/05/05 09:09:32;;;;;;;3.70;2.90;;;;;;;21.30;44.32;97853.39;110192;1246;68494;-74
2023/05/05 09:12:01;;;;;;;6.30;3.00;;;;;;;20.76;45.42;97856.02;110185;1242;69284;-73
2023/05/05 09:14:30;;;;;;;4.30;2.30;;;;;;;20.17;46.10;97850.30;110184;1242;59667;-73
2023/05/05 09:17:01;;;;;;;2.20;1.90;;;;;;;21.12;45.43;97853.92;110179;1245;59666;-74
2023/05/05 09:19:30;;;;;;;3.10;2.40;;;;;;;21.79;43.57;97850.96;110189;1245;71416;-73
2023/05/05 09:21:59;;;;;;;2.20;1.90;;;;;;;22.28;43.27;97850.18;110190;1245;69301;-73
2023/05/05 09:24:28;;;;;;;;;;;;;;;22.47;41.97;97846.11;110204;1245;68789;-74
2023/05/05 09:26:59;;;;;;;3.90;2.70;;;;;;;23.07;41.66;97849.02;110129;1244;59746;-72
2023/05/05 09:29:28;;;;;;;5.90;2.70;;;;;;;22.93;41.01;97850.41;110282;1245;59742;-72
2023/05/05 09:32:04;;;;;;;3.90;2.50;;;;;;;22.78;40.69;97845.86;110273;1242;71952;-72
2023/05/05 09:34:34;;;;;;;2.50;1.80;;;;;;;22.20;41.04;97843.72;110216;1244;69275;-72
2023/05/05 09:37:04;;;;;;;5.20;2.50;;;;;;;21.76;42.12;97840.06;110184;1246;69670;-71
2023/05/05 09:39:33;;;;;;;3.20;2.40;;;;;;;21.53;42.73;97840.54;110264;1243;59696;-71
2023/05/05 09:42:03;;;;;;;2.70;2.00;;;;;;;21.53;42.96;97840.05;110256;1244;59688;-71
2023/05/05 09:44:39;;;;;;;3.20;2.60;;;;;;;21.60;43.10;97832.93;110258;1245;71948;-73
2023/05/05 09:47:08;;;;;;;3.60;2.20;;;;;;;21.86;43.09;97830.52;110178;1241;68470;-72
2023/05/05 09:50:00;;;;;;;2.80;2.50;;;;;;;22.46;41.93;97832.00;110144;1241;69516;-72
2023/05/05 09:52:29;;;;;;;2.90;1.70;;;;;;;22.88;41.91;97827.58;110177;1245;59667;-71
2023/05/05 09:54:58;;;;;;;2.30;2.00;;;;;;;23.36;39.96;97825.30;110177;1245;59711;-72
2023/05/05 09:57:30;;;;;;;3.80;2.00;;;;;;;23.78;39.02;97826.48;110151;1241;71696;-72
2023/05/05 10:00:00;;;;;;;2.00;1.60;;;;;;;24.18;37.43;97826.25;110195;1245;68432;-73
2023/05/05 10:02:35;;;;;;;2.50;1.40;;;;;;;23.93;36.77;97824.80;110136;1243;69364;-73
2023/05/05 10:05:11;;;;;;;1.40;1.30;;;;;;;24.47;36.96;97823.80;110137;1245;59746;-72
2023/05/05 10:07:45;;;;;;;1.50;1.00;;;;;;;25.20;35.48;97818.02;110129;1244;59707;-72
2023/05/05 10:10:17;;;;;;;1.90;1.30;;;;;;;25.34;33.96;97811.75;110282;1244;71185;-74
2023/05/05 10:12:49;;;;;;;1.40;1.10;;;;;;;25.72;34.22;97809.66;110191;1244;70206;-73
2023/05/05 10:15:17;;;;;;;1.80;1.20;;;;;;;25.53;33.82;97807.07;110133;1241;69261;-72
2023/05/05 10:17:48;;;;;;;1.90;1.40;;;;;;;25.55;34.03;97804.86;110186;1244;59722;-73
2023/05/05 10:20:21;;;;;;;2.10;1.40;;;;;;;25.39;33.14;97808.55;110172;1241;59721;-72
2023/05/05 10:22:52;;;;;;;2.90;1.60;;;;;;;25.56;34.01;97803.04;110164;1244;71359;-73
2023/05/05 10:25:30;;;;;;;2.00;1.40;;;;;;;24.46;35.46;97801.45;110230;1241;70065;-72
2023/05/05 10:28:03;;;;;;;1.90;1.40;;;;;;;25.55;34.76;97796.77;110264;1244;69258;-73
2023/05/05 10:30:42;;;;;;;1.70;1.20;;;;;;;25.36;33.94;97795.67;110114;1245;59750;-73
2023/05/05 10:33:26;;;;;;;1.90;1.50;;;;;;;24.45;34.57;97796.15;110286;1244;59744;-73
2023/05/05 10:36:04;;;;;;;2.50;1.30;;;;;;;23.26;36.10;97792.23;110145;1244;70921;-72
2023/05/05 10:38:33;;;;;;;2.50;1.40;;;;;;;22.56;38.14;97790.73;110150;1243;69919;-71
2023/05/05 10:41:04;;;;;;;2.50;1.60;;;;;;;22.72;38.56;97786.19;110153;1242;69402;-71
2023/05/05 10:43:33;;;;;;;2.60;1.50;;;;;;;22.66;38.68;97783.55;110086;1246;59783;-71
2023/05/05 10:46:03;;;;;;;2.00;1.40;;;;;;;21.93;39.73;97781.56;110147;1242;59665;-71
2023/05/05 10:48:46;;;;;;;1.30;1.20;;;;;;;20.78;41.44;97780.71;110138;1244;71358;-72
2023/05/05 10:51:31;;;;;;;2.00;1.50;;;;;;;21.07;42.65;97774.76;110128;1244;68738;-72
2023/05/05 10:54:18;;;;;;;1.20;1.00;;;;;;;21.44;42.39;97768.11;110089;1244;69621;-72
2023/05/05 10:56:48;;;;;;;1.60;1.20;;;;;;;22.20;40.06;97765.98;110125;1244;59665;-72
2023/05/05 10:59:35;;;;;;;2.40;1.60;;;;;;;22.43;39.06;97761.85;110158;1243;59702;-71
2023/05/05 11:02:22;;;;;;;0.90;0.90;;;;;;;22.59;37.40;97758.25;110108;1241;71952;-71
2023/05/05 11:05:08;;;;;;;1.40;1.00;;;;;;;22.03;38.38;97751.27;110196;1241;69168;-72
2023/05/05 11:07:37;;;;;;;1.40;1.20;;;;;;;22.26;38.41;97749.10;110143;1243;68908;-71
2023/05/05 11:10:09;;;;;;;1.80;1.20;;;;;;;22.81;38.16;97747.80;110152;1245;59702;-70
2023/05/05 11:12:51;;;;;;;2.40;1.60;;;;;;;23.00;37.37;97747.39;110175;1245;59662;-71
2023/05/05 11:15:23;;;;;;;18.30;4.50;;;;;;;23.13;36.96;97741.38;110279;1245;70599;-71
2023/05/05 11:17:53;;;;;;;2.00;1.10;;;;;;;23.17;37.97;97737.34;110108;1245;69949;-70
2023/05/05 11:20:48;;;;;;;1.20;1.00;;;;;;;23.52;36.76;97739.87;110121;1241;68503;-71
2023/05/05 11:23:19;;;;;;;1.30;1.00;;;;;;;24.13;35.56;97739.96;110019;1244;59753;-73
2023/05/05 11:25:50;;;;;;;1.40;1.20;;;;;;;23.71;36.01;97736.55;110224;1243;59698;-72
2023/05/05 11:28:31;;;;;;;1.90;1.00;;;;;;;23.46;36.33;97734.65;110276;1245;71372;-72
2023/05/05 11:31:00;;;;;;;1.60;1.00;;;;;;;23.07;37.19;97727.15;110104;1245;69201;-71
2023/05/05 11:33:38;;;;;;;1.10;1.00;;;;;;;23.47;37.12;97727.29;110161;1241;68526;-71
2023/05/05 11:36:10;;;;;;;1.70;1.30;;;;;;;24.12;36.05;97730.16;110179;1241;59692;-73
2023/05/05 11:39:10;;;;;;;1.90;1.10;;;;;;;24.24;34.40;97726.68;110176;1244;59678;-69
2023/05/05 11:42:04;;;;;;;1.20;0.90;;;;;;;24.40;34.52;97728.61;110144;1241;71921;-73
2023/05/05 11:44:38;;;;;;;;;;;;;;;24.25;34.66;97725.90;110100;1245;68100;-71
2023/05/05 11:47:07;;;;;;;1.70;1.40;;;;;;;24.58;34.38;97724.18;110114;1245;68310;-71
2023/05/05 11:49:38;;;;;;;1.10;1.00;;;;;;;24.55;33.36;97722.60;110136;1244;59763;-71
2023/05/05 11:52:11;;;;;;;1.40;1.00;;;;;;;24.50;33.40;97722.77;110206;1243;59708;-71